Time;durP1;ratioP1;P1;durP2;ratioP2;P2;SDS_P1;SDS_P2;PMS_P1;PMS_P2;Temp;Humidity;BMP_temperature;BMP_pressure;BME280_temperature;BME280_humidity;BME280_pressure;Samples;Min_cycle;Max_cycle;Signal;HPM_P1;HPM_P2
2023/12/06 00:01:40;;;;;;;;;;;;;;;6.92;61.33;99907.88;5000303;28;6780;-74
2023/12/06 00:04:06;;;;;;;;;;;;;;;6.89;61.85;99903.47;4990317;28;6867;-74
2023/12/06 00:06:31;;;;;;;;;;;;;;;6.89;61.67;99906.03;5009747;28;6843;-74
2023/12/06 00:08:57;;;;;;;;;;;;;;;6.88;62.27;99908.50;5001829;28;7826;-74
2023/12/06 00:11:22;;;;;;;;;;;;;;;6.88;61.82;99905.97;4992174;28;6795;-74
2023/12/06 00:13:48;;;;;;;;;;;;;;;6.85;62.00;99901.56;5004442;28;6803;-74
2023/12/06 00:16:13;;;;;;;;;;;;;;;6.83;61.85;99909.91;5005548;28;6800;-74
2023/12/06 00:18:41;;;;;;;;;;;;;;;6.81;61.14;99902.22;5001506;28;7037;-74
2023/12/06 00:21:07;;;;;;;;;;;;;;;6.78;61.87;99915.66;5003723;28;6995;-74
2023/12/06 00:23:33;;;;;;;;;;;;;;;6.76;61.35;99922.34;4990458;28;7020;-74
2023/12/06 00:25:58;;;;;;;;;;;;;;;6.73;61.10;99922.13;5004513;28;6792;-74
2023/12/06 00:28:24;;;;;;;;;;;;;;;6.71;61.73;99931.38;5006075;28;6995;-74
2023/12/06 00:30:49;;;;;;;;;;;;;;;6.69;61.24;99934.63;4999060;28;7288;-74
2023/12/06 00:33:15;;;;;;;;;;;;;;;6.70;62.00;99936.38;4996952;28;6953;-74
2023/12/06 00:35:40;;;;;;;;;;;;;;;6.66;61.81;99937.84;5002115;28;7184;-77
2023/12/06 00:38:05;;;;;;;;;;;;;;;6.65;61.27;99939.53;5004830;28;7238;-77
2023/12/06 00:40:31;;;;;;;;;;;;;;;6.63;61.19;99936.03;5003944;28;6956;-77
2023/12/06 00:42:57;;;;;;;;;;;;;;;6.61;61.91;99946.94;5005308;28;6779;-77
2023/12/06 00:45:22;;;;;;;;;;;;;;;6.57;61.50;99948.41;4993302;28;7302;-77
2023/12/06 00:47:48;;;;;;;;;;;;;;;6.55;61.27;99944.03;5002228;28;6783;-77
2023/12/06 00:50:13;;;;;;;;;;;;;;;6.52;61.74;99954.94;5008104;28;7324;-76
2023/12/06 00:52:39;;;;;;;;;;;;;;;6.49;61.73;99954.75;4993781;28;6844;-74
2023/12/06 00:55:05;;;;;;;;;;;;;;;6.45;61.61;99953.69;5002770;28;6783;-74
2023/12/06 00:57:30;;;;;;;;;;;;;;;6.44;61.29;99957.03;5006092;28;7191;-74
2023/12/06 00:59:56;;;;;;;;;;;;;;;6.42;61.18;99952.63;5001269;28;6945;-73
2023/12/06 01:02:21;;;;;;;;;;;;;;;6.39;61.99;99960.97;4998766;28;6847;-75
2023/12/06 01:04:50;;;;;;;;;;;;;;;6.36;61.12;99964.22;5008599;28;6864;-73
2023/12/06 01:07:17;;;;;;;;;;;;;;;6.35;61.16;99962.47;5006307;28;6992;-76
2023/12/06 01:09:44;;;;;;;;;;;;;;;6.34;61.83;99970.91;5002326;28;6982;-75
2023/12/06 01:12:09;;;;;;;;;;;;;;;6.34;61.71;99970.91;5007418;28;7326;-73
2023/12/06 01:14:34;;;;;;;;;;;;;;;6.33;61.28;99968.25;4995009;28;6997;-74
2023/12/06 01:17:00;;;;;;;;;;;;;;;6.33;61.58;99981.88;5008682;28;6971;-75
2023/12/06 01:19:25;;;;;;;;;;;;;;;6.30;61.81;99984.22;5020773;28;6926;-74
2023/12/06 01:21:51;;;;;;;;;;;;;;;6.30;61.90;99986.75;5006732;28;7094;-74
2023/12/06 01:24:16;;;;;;;;;;;;;;;6.30;61.30;99986.75;4989437;28;6948;-74
2023/12/06 01:26:42;;;;;;;;;;;;;;;6.28;61.96;99995.97;4983841;28;6984;-76
2023/12/06 01:29:08;;;;;;;;;;;;;;;6.28;61.85;99995.97;5024615;28;7013;-74
2023/12/06 01:31:34;;;;;;;;;;;;;;;6.29;61.32;99999.41;5005894;28;7148;-73
2023/12/06 01:34:00;;;;;;;;;;;;;;;6.30;61.76;99999.50;5001578;28;6998;-72
2023/12/06 01:36:26;;;;;;;;;;;;;;;6.31;61.38;99987.66;4988664;28;7006;-71
2023/12/06 01:38:51;;;;;;;;;;;;;;;6.32;61.30;99997.03;5001527;28;6934;-71
2023/12/06 01:41:17;;;;;;;;;;;;;;;6.33;61.73;100007.31;5007188;28;7007;-72
2023/12/06 01:43:43;;;;;;;;;;;;;;;6.33;62.09;100008.97;4980617;28;7151;-74
2023/12/06 01:46:10;;;;;;;;;;;;;;;6.34;61.46;100005.66;4990439;28;6955;-72
2023/12/06 01:48:37;;;;;;;;;;;;;;;6.36;61.38;100017.69;5001781;28;6977;-72
2023/12/06 01:51:04;;;;;;;;;;;;;;;6.39;61.86;100024.63;5005791;28;7004;-71
2023/12/06 01:53:30;;;;;;;;;;;;;;;6.41;61.52;100032.34;5015574;28;7419;-72
2023/12/06 01:55:56;;;;;;;;;;;;;;;6.42;61.46;100034.97;4999112;28;7092;-72
2023/12/06 01:58:22;;;;;;;;;;;;;;;6.42;61.82;100034.97;4994962;28;6943;-74
2023/12/06 02:00:48;;;;;;;;;;;;;;;6.42;61.92;100040.06;5000312;28;7025;-74
2023/12/06 02:03:15;;;;;;;;;;;;;;;6.43;61.74;100044.38;5003712;28;6933;-74
2023/12/06 02:05:40;;;;;;;;;;;;;;;6.41;61.10;100043.41;4990639;28;7016;-75
2023/12/06 02:08:06;;;;;;;;;;;;;;;6.40;61.78;100044.19;4995708;28;6977;-75
2023/12/06 02:10:31;;;;;;;;;;;;;;;6.38;61.27;100046.66;4995092;28;6816;-74
2023/12/06 02:12:57;;;;;;;;;;;;;;;6.38;62.04;100046.66;4999304;28;6922;-75
2023/12/06 02:15:22;;;;;;;;;;;;;;;6.39;61.84;100050.09;5002247;28;6909;-74
2023/12/06 02:17:49;;;;;;;;;;;;;;;6.40;61.65;100046.75;5001220;28;6792;-75
2023/12/06 02:20:15;;;;;;;;;;;;;;;6.40;61.88;100051.84;4992612;28;6796;-74
2023/12/06 02:22:41;;;;;;;;;;;;;;;6.41;62.01;100048.50;4986883;28;6998;-74
2023/12/06 02:25:14;;;;;;;;;;;;;;;6.43;62.04;100064.75;4989736;28;6964;-74
2023/12/06 02:27:43;;;;;;;;;;;;;;;6.44;62.07;100063.09;5013290;28;7363;-74
2023/12/06 02:30:10;;;;;;;;;;;;;;;6.46;61.51;100070.00;5016406;28;7007;-74
2023/12/06 02:32:37;;;;;;;;;;;;;;;6.47;61.63;100069.25;4989950;28;11271;-74
2023/12/06 02:35:11;;;;;;;;;;;;;;;6.47;61.98;100063.25;4993475;28;6855;-74
2023/12/06 02:37:40;;;;;;;;;;;;;;;6.47;62.13;100063.25;5012762;28;7055;-74
2023/12/06 02:40:12;;;;;;;;;;;;;;;6.48;62.28;100076.09;4999616;28;7649;-74
2023/12/06 02:42:37;;;;;;;;;;;;;;;6.47;61.54;100071.78;5016511;28;7106;-74
2023/12/06 02:45:03;;;;;;;;;;;;;;;6.49;61.54;100075.28;4992160;28;6867;-74
2023/12/06 02:47:29;;;;;;;;;;;;;;;6.53;62.02;100073.81;4996426;28;7287;-74
2023/12/06 02:49:54;;;;;;;;;;;;;;;6.53;62.17;100073.81;5017739;28;7205;-75
2023/12/06 02:52:20;;;;;;;;;;;;;;;6.55;61.81;100076.44;4998897;28;6792;-75
2023/12/06 02:54:45;;;;;;;;;;;;;;;6.56;61.76;100079.06;5004444;28;8084;-75
2023/12/06 02:57:11;;;;;;;;;;;;;;;6.58;61.79;100081.72;4985930;28;6938;-75
2023/12/06 02:59:36;;;;;;;;;;;;;;;6.61;62.11;100084.44;5000459;28;6974;-74
2023/12/06 03:02:02;;;;;;;;;;;;;;;6.62;62.10;100078.56;4992594;28;8641;-74
2023/12/06 03:04:27;;;;;;;;;;;;;;;6.63;61.71;100081.22;4984638;28;8674;-74
2023/12/06 03:06:53;;;;;;;;;;;;;;;6.63;61.37;100076.09;4999468;28;6780;-77
2023/12/06 03:09:18;;;;;;;;;;;;;;;6.65;61.62;100078.72;5016955;28;6791;-75
2023/12/06 03:11:44;;;;;;;;;;;;;;;6.69;61.71;100079.78;5017151;28;6776;-77
2023/12/06 03:14:09;;;;;;;;;;;;;;;6.71;62.02;100084.19;5023073;28;6836;-73
2023/12/06 03:16:35;;;;;;;;;;;;;;;6.73;61.71;100084.28;5010314;28;7272;-74
2023/12/06 03:19:01;;;;;;;;;;;;;;;6.74;61.94;100084.34;5022987;28;6771;-74
2023/12/06 03:21:27;;;;;;;;;;;;;;;6.77;61.23;100084.56;5013450;28;6876;-74
2023/12/06 03:23:52;;;;;;;;;;;;;;;6.77;61.45;100089.66;5021832;28;6784;-74
2023/12/06 03:26:18;;;;;;;;;;;;;;;6.78;61.38;100096.50;5010301;28;7203;-78
2023/12/06 03:28:43;;;;;;;;;;;;;;;6.80;61.56;100094.03;5016930;28;6977;-77
2023/12/06 03:31:09;;;;;;;;;;;;;;;6.79;61.62;100097.38;5010855;28;6919;-76
2023/12/06 03:33:34;;;;;;;;;;;;;;;6.79;62.00;100095.72;5019806;28;7055;-78
2023/12/06 03:36:00;;;;;;;;;;;;;;;6.79;61.28;100100.81;5017867;28;6964;-75
2023/12/06 03:38:25;;;;;;;;;;;;;;;6.79;61.65;100098.25;5017887;28;6768;-76
2023/12/06 03:40:51;;;;;;;;;;;;;;;6.79;60.98;100105.91;5007207;28;7000;-78
2023/12/06 03:43:17;;;;;;;;;;;;;;;6.82;62.19;100105.22;5018641;28;6787;-74
2023/12/06 03:45:43;;;;;;;;;;;;;;;6.82;62.04;100107.75;5018722;28;7229;-77
2023/12/06 03:48:08;;;;;;;;;;;;;;;6.84;62.08;100113.81;5012918;28;6788;-79
2023/12/06 03:50:34;;;;;;;;;;;;;;;6.85;61.72;100112.13;5017990;28;6780;-76
2023/12/06 03:52:59;;;;;;;;;;;;;;;6.86;62.08;100109.69;5006227;28;7296;-75
2023/12/06 03:55:26;;;;;;;;;;;;;;;6.88;61.47;100117.41;5004937;28;6779;-75
2023/12/06 03:57:51;;;;;;;;;;;;;;;6.90;61.53;100120.94;5018018;28;6977;-76
2023/12/06 04:00:17;;;;;;;;;;;;;;;6.89;61.71;100112.41;5016256;28;7261;-78
2023/12/06 04:02:42;;;;;;;;;;;;;;;6.90;61.73;100121.78;5014719;28;7158;-77
2023/12/06 04:05:08;;;;;;;;;;;;;;;6.93;61.89;100118.56;5020261;28;7729;-76
2023/12/06 04:07:33;;;;;;;;;;;;;;;6.93;61.96;100118.56;5009597;28;6863;-77
2023/12/06 04:09:59;;;;;;;;;;;;;;;6.93;61.00;100121.09;5006536;28;7116;-77
2023/12/06 04:12:24;;;;;;;;;;;;;;;6.94;61.36;100120.31;5019413;28;6966;-74
2023/12/06 04:14:50;;;;;;;;;;;;;;;6.93;61.37;100116.00;5006583;28;7061;-74
2023/12/06 04:17:17;;;;;;;;;;;;;;;6.94;61.26;100123.75;5001568;28;6815;-73
2023/12/06 04:19:42;;;;;;;;;;;;;;;6.95;61.27;100124.59;4996249;28;6839;-73
2023/12/06 04:22:08;;;;;;;;;;;;;;;6.97;62.05;100128.16;5012921;28;6811;-74
2023/12/06 04:24:33;;;;;;;;;;;;;;;6.99;61.82;100126.56;4992182;28;6788;-71
2023/12/06 04:26:59;;;;;;;;;;;;;;;7.01;61.91;100129.22;4994358;28;6993;-72
2023/12/06 04:29:24;;;;;;;;;;;;;;;7.01;61.31;100131.75;5002000;28;6970;-72
2023/12/06 04:31:50;;;;;;;;;;;;;;;7.02;61.97;100130.97;4993477;28;6922;-72
2023/12/06 04:34:15;;;;;;;;;;;;;;;7.03;62.08;100130.16;5003392;28;6792;-71
2023/12/06 04:36:41;;;;;;;;;;;;;;;7.05;61.34;100136.22;4992283;28;7882;-73
2023/12/06 04:39:06;;;;;;;;;;;;;;;7.05;61.52;100137.13;5001150;28;7747;-72
2023/12/06 04:41:32;;;;;;;;;;;;;;;7.07;61.43;100140.63;4978118;28;7019;-72
2023/12/06 04:43:57;;;;;;;;;;;;;;;7.09;61.73;100146.69;5002247;28;6930;-73
2023/12/06 04:46:23;;;;;;;;;;;;;;;7.11;61.31;100156.09;4996110;28;6788;-74
2023/12/06 04:48:48;;;;;;;;;;;;;;;7.11;61.35;100161.19;5019021;28;6799;-72
2023/12/06 04:51:15;;;;;;;;;;;;;;;7.13;61.75;100157.94;4997809;28;6840;-74
2023/12/06 04:53:40;;;;;;;;;;;;;;;7.15;61.67;100160.59;4995099;28;6804;-72
2023/12/06 04:56:06;;;;;;;;;;;;;;;7.16;62.14;100167.44;4996589;28;6792;-72
2023/12/06 04:58:32;;;;;;;;;;;;;;;7.18;62.43;100164.16;4997846;28;6772;-74
2023/12/06 05:00:57;;;;;;;;;;;;;;;7.21;61.25;100174.56;5004976;28;7143;-71
2023/12/06 05:03:23;;;;;;;;;;;;;;;7.21;61.66;100169.47;4988076;28;7117;-72
2023/12/06 05:05:48;;;;;;;;;;;;;;;7.23;61.59;100167.88;4976928;28;7604;-73
2023/12/06 05:08:14;;;;;;;;;;;;;;;7.27;61.85;100168.94;5007695;28;6867;-72
2023/12/06 05:10:39;;;;;;;;;;;;;;;7.28;62.03;100163.03;4983390;28;7020;-72
2023/12/06 05:13:05;;;;;;;;;;;;;;;7.29;61.23;100172.44;5000303;28;7226;-73
2023/12/06 05:15:30;;;;;;;;;;;;;;;7.30;61.74;100168.25;5003452;28;6953;-72
2023/12/06 05:17:56;;;;;;;;;;;;;;;7.30;61.82;100174.22;5009188;28;7021;-72
2023/12/06 05:20:22;;;;;;;;;;;;;;;7.30;61.54;100174.22;5016113;28;7355;-73
2023/12/06 05:22:47;;;;;;;;;;;;;;;7.32;61.21;100170.06;4999445;28;7308;-74
2023/12/06 05:25:13;;;;;;;;;;;;;;;7.32;61.18;100171.75;5001735;28;6844;-71
2023/12/06 05:27:38;;;;;;;;;;;;;;;7.33;61.63;100179.47;4997463;28;6799;-74
2023/12/06 05:30:04;;;;;;;;;;;;;;;7.34;61.69;100185.47;5000899;28;6807;-74
2023/12/06 05:32:30;;;;;;;;;;;;;;;7.33;62.16;100188.81;5002707;28;7169;-74
2023/12/06 05:34:55;;;;;;;;;;;;;;;7.34;61.79;100194.00;4999309;28;7373;-74
2023/12/06 05:37:21;;;;;;;;;;;;;;;7.35;61.96;100198.31;5000144;28;7207;-74
2023/12/06 05:39:46;;;;;;;;;;;;;;;7.36;62.13;100192.41;5001605;28;6791;-74
2023/12/06 05:42:12;;;;;;;;;;;;;;;7.38;61.12;100202.69;4999640;28;6926;-74
2023/12/06 05:44:38;;;;;;;;;;;;;;;7.40;61.61;100200.22;4988693;28;7062;-74
2023/12/06 05:47:04;;;;;;;;;;;;;;;7.42;62.13;100203.75;4993520;28;6863;-74
2023/12/06 05:49:29;;;;;;;;;;;;;;;7.44;61.46;100207.28;5003737;28;6815;-74
2023/12/06 05:51:54;;;;;;;;;;;;;;;7.47;61.20;100212.56;5004056;28;8114;-74
2023/12/06 05:54:20;;;;;;;;;;;;;;;7.48;62.54;100207.56;5004378;28;6784;-74
2023/12/06 05:56:45;;;;;;;;;;;;;;;7.51;62.14;100206.81;5000971;28;6795;-74
2023/12/06 05:59:11;;;;;;;;;;;;;;;7.55;61.87;100216.44;5003390;28;6974;-73
2023/12/06 06:01:36;;;;;;;;;;;;;;;7.56;61.30;100212.19;4995692;28;6987;-74
2023/12/06 06:04:02;;;;;;;;;;;;;;;7.58;61.11;100214.03;4997168;28;7958;-74
2023/12/06 06:06:33;;;;;;;;;;;;;;;7.61;62.21;100224.41;5013684;28;8687;-74
2023/12/06 06:08:59;;;;;;;;;;;;;;;7.63;62.34;100219.41;5011052;28;6875;-74
2023/12/06 06:11:24;;;;;;;;;;;;;;;7.66;61.51;100218.72;5003736;28;7314;-74
2023/12/06 06:13:50;;;;;;;;;;;;;;;7.68;61.65;100212.00;4996255;28;6938;-74
2023/12/06 06:16:19;;;;;;;;;;;;;;;7.71;61.58;100222.38;5004675;28;7019;-74
2023/12/06 06:18:44;;;;;;;;;;;;;;;7.72;61.33;100226.69;5017615;28;6984;-74
2023/12/06 06:21:10;;;;;;;;;;;;;;;7.74;62.16;100225.13;4997839;28;7033;-74
2023/12/06 06:23:35;;;;;;;;;;;;;;;7.76;61.84;100220.97;5002778;28;6983;-74
2023/12/06 06:26:01;;;;;;;;;;;;;;;7.77;61.28;100231.28;5012843;28;6796;-74
2023/12/06 06:28:26;;;;;;;;;;;;;;;7.79;60.99;100231.34;5017349;28;6952;-74
2023/12/06 06:30:52;;;;;;;;;;;;;;;7.80;61.80;100228.00;4976161;28;6968;-74
2023/12/06 06:33:17;;;;;;;;;;;;;;;7.81;61.38;100231.44;5000854;28;7223;-74
2023/12/06 06:35:43;;;;;;;;;;;;;;;7.83;61.88;100230.75;4993415;28;6863;-74
2023/12/06 06:38:09;;;;;;;;;;;;;;;7.82;62.27;100231.50;4997450;28;7432;-74
2023/12/06 06:40:35;;;;;;;;;;;;;;;7.85;61.52;100235.91;5000472;28;7167;-73
2023/12/06 06:43:00;;;;;;;;;;;;;;;7.85;61.74;100241.03;4999239;28;7442;-72
2023/12/06 06:45:25;;;;;;;;;;;;;;;7.88;61.13;100247.19;5008336;28;7805;-73
2023/12/06 06:47:51;;;;;;;;;;;;;;;7.89;62.26;100242.97;4998584;28;6840;-72
2023/12/06 06:50:16;;;;;;;;;;;;;;;7.92;60.99;100250.78;4977157;28;7798;-74
2023/12/06 06:52:42;;;;;;;;;;;;;;;7.94;61.48;100245.78;5003701;28;6780;-72
2023/12/06 06:55:07;;;;;;;;;;;;;;;7.96;61.21;100250.16;5005541;28;6970;-74
2023/12/06 06:57:33;;;;;;;;;;;;;;;7.98;61.43;100252.81;4998266;28;6780;-73
2023/12/06 06:59:59;;;;;;;;;;;;;;;7.99;61.57;100252.91;4995586;28;6779;-73
2023/12/06 07:02:24;;;;;;;;;;;;;;;8.01;61.65;100258.06;4996382;28;6823;-72
2023/12/06 07:04:51;;;;;;;;;;;;;;;8.01;62.12;100263.19;5002649;28;7869;-73
2023/12/06 07:07:18;;;;;;;;;;;;;;;8.03;62.32;100264.16;5001237;28;6968;-72
2023/12/06 07:09:43;;;;;;;;;;;;;;;8.04;62.24;100259.13;4998278;28;7279;-72
2023/12/06 07:12:10;;;;;;;;;;;;;;;8.05;60.92;100265.97;5004038;28;8667;-73
2023/12/06 07:14:36;;;;;;;;;;;;;;;8.06;61.46;100272.88;4989223;28;7792;-74
2023/12/06 07:17:02;;;;;;;;;;;;;;;8.08;61.73;100269.53;5002362;28;6852;-72
2023/12/06 07:19:28;;;;;;;;;;;;;;;8.08;61.67;100280.59;5021637;28;7121;-75
2023/12/06 07:21:53;;;;;;;;;;;;;;;8.10;61.86;100284.13;4995972;28;6853;-72
2023/12/06 07:24:20;;;;;;;;;;;;;;;8.12;61.31;100285.09;4995085;28;6787;-72
2023/12/06 07:26:46;;;;;;;;;;;;;;;8.13;61.10;100284.31;5015340;28;7017;-73
2023/12/06 07:29:12;;;;;;;;;;;;;;;8.16;61.45;100291.22;4998875;28;6966;-73
2023/12/06 07:31:39;;;;;;;;;;;;;;;8.16;62.26;100291.22;4988242;28;8670;-72
2023/12/06 07:34:05;;;;;;;;;;;;;;;8.16;61.26;100289.56;4997665;28;7244;-71
2023/12/06 07:36:30;;;;;;;;;;;;;;;8.19;61.09;100299.09;4993375;28;7666;-72
2023/12/06 07:38:56;;;;;;;;;;;;;;;8.22;61.59;100300.94;5014380;28;6840;-72
2023/12/06 07:41:22;;;;;;;;;;;;;;;8.25;62.33;100306.19;5019189;28;6791;-72
2023/12/06 07:43:47;;;;;;;;;;;;;;;8.26;61.88;100303.75;4994685;28;7704;-72
2023/12/06 07:46:13;;;;;;;;;;;;;;;8.27;61.51;100296.94;5020513;28;6860;-72
2023/12/06 07:48:38;;;;;;;;;;;;;;;8.28;62.40;100309.81;5002184;28;7139;-74
2023/12/06 07:51:04;;;;;;;;;;;;;;;8.28;62.19;100309.81;4986075;28;6962;-76
2023/12/06 07:53:29;;;;;;;;;;;;;;;8.28;61.84;100309.81;5000206;28;6784;-76
2023/12/06 07:55:55;;;;;;;;;;;;;;;8.29;61.76;100318.34;4995226;28;6804;-76
2023/12/06 07:58:24;;;;;;;;;;;;;;;8.30;61.29;100320.09;5001321;28;6779;-76
2023/12/06 08:00:49;;;;;;;;;;;;;;;8.32;61.05;100321.09;4997210;28;6792;-74
2023/12/06 08:03:16;;;;;;;;;;;;;;;8.32;61.13;100321.09;5008025;28;7980;-74
2023/12/06 08:05:41;;;;;;;;;;;;;;;8.34;61.17;100322.91;4995074;28;6819;-74
2023/12/06 08:08:07;;;;;;;;;;;;;;;8.34;61.44;100324.59;4991637;28;6784;-74
2023/12/06 08:10:33;;;;;;;;;;;;;;;8.36;62.51;100328.09;5000845;28;6995;-74
2023/12/06 08:12:59;;;;;;;;;;;;;;;8.38;62.22;100331.63;5001750;28;6803;-74
2023/12/06 08:15:25;;;;;;;;;;;;;;;8.40;61.23;100332.59;5001599;28;6855;-74
2023/12/06 08:17:50;;;;;;;;;;;;;;;8.40;61.64;100339.38;4999762;28;6847;-74
2023/12/06 08:20:17;;;;;;;;;;;;;;;8.39;61.61;100329.97;5001271;28;6791;-74
2023/12/06 08:22:42;;;;;;;;;;;;;;;8.41;62.39;100334.38;4994493;28;7362;-74
2023/12/06 08:25:08;;;;;;;;;;;;;;;8.41;61.23;100333.47;5000617;28;6776;-74
2023/12/06 08:27:34;;;;;;;;;;;;;;;8.42;61.62;100332.69;4989684;28;6801;-74
2023/12/06 08:30:00;;;;;;;;;;;;;;;8.44;62.11;100336.19;4994350;28;7473;-74
2023/12/06 08:32:27;;;;;;;;;;;;;;;8.44;61.66;100338.75;4994477;28;6864;-74
2023/12/06 08:34:53;;;;;;;;;;;;;;;8.46;62.39;100342.28;5017795;28;6795;-74
2023/12/06 08:37:19;;;;;;;;;;;;;;;8.47;61.47;100349.16;4997886;28;6900;-74
2023/12/06 08:39:44;;;;;;;;;;;;;;;8.48;62.04;100354.31;4995168;28;7283;-74
2023/12/06 08:42:12;;;;;;;;;;;;;;;8.51;61.98;100351.09;5003510;28;6788;-74
2023/12/06 08:44:38;;;;;;;;;;;;;;;8.52;61.57;100352.84;4991417;28;7087;-74
2023/12/06 08:47:04;;;;;;;;;;;;;;;8.55;61.25;100355.59;5005489;28;7186;-74
2023/12/06 08:49:30;;;;;;;;;;;;;;;8.57;62.10;100356.56;4991644;28;8288;-74
2023/12/06 08:51:55;;;;;;;;;;;;;;;8.59;61.65;100362.63;5003357;28;6966;-74
2023/12/06 08:54:21;;;;;;;;;;;;;;;8.61;61.50;100365.28;5004919;28;7281;-74
2023/12/06 08:56:46;;;;;;;;;;;;;;;8.63;61.25;100363.69;4982237;28;7163;-74
2023/12/06 08:59:12;;;;;;;;;;;;;;;8.66;61.74;100366.41;4998383;28;6926;-78
2023/12/06 09:01:37;;;;;;;;;;;;;;;8.69;62.24;100374.25;5002710;28;6799;-74
2023/12/06 09:04:03;;;;;;;;;;;;;;;8.72;61.63;100369.28;5005914;28;6779;-77
2023/12/06 09:06:28;;;;;;;;;;;;;;;8.74;61.37;100377.91;4997269;28;7264;-78
2023/12/06 09:08:54;;;;;;;;;;;;;;;8.78;61.95;100375.53;5030321;28;6768;-79
2023/12/06 09:11:20;;;;;;;;;;;;;;;8.78;62.04;100383.19;5008062;28;6796;-77
2023/12/06 09:13:46;;;;;;;;;;;;;;;8.80;61.27;100384.19;5007735;28;7071;-76
2023/12/06 09:16:12;;;;;;;;;;;;;;;8.81;61.42;100378.28;4989509;28;7028;-77
2023/12/06 09:18:38;;;;;;;;;;;;;;;8.84;61.58;100379.31;5014633;28;6792;-75
2023/12/06 09:21:04;;;;;;;;;;;;;;;8.87;62.29;100368.34;5007302;28;6788;-78
2023/12/06 09:23:31;;;;;;;;;;;;;;;8.91;61.75;100370.31;5014907;28;6815;-76
2023/12/06 09:25:58;;;;;;;;;;;;;;;8.94;62.43;100370.47;5016124;28;7298;-76
2023/12/06 09:28:23;;;;;;;;;;;;;;;8.97;62.17;100380.84;5017321;28;7035;-76
2023/12/06 09:30:49;;;;;;;;;;;;;;;9.01;61.14;100387.00;5001095;28;7817;-79
2023/12/06 09:33:14;;;;;;;;;;;;;;;9.03;61.67;100391.41;5027587;28;7269;-75
2023/12/06 09:35:40;;;;;;;;;;;;;;;9.04;61.88;100387.19;5013650;28;6938;-78
2023/12/06 09:38:05;;;;;;;;;;;;;;;9.02;61.08;100394.75;5016612;28;7144;-77
2023/12/06 09:40:31;;;;;;;;;;;;;;;9.01;61.09;100392.13;5002052;28;7371;-77
2023/12/06 09:43:01;;;;;;;;;;;;;;;8.99;60.88;100393.72;5013243;28;6792;-77
2023/12/06 09:45:26;;;;;;;;;;;;;;;8.93;60.60;100394.25;5014779;28;7787;-75
2023/12/06 09:47:52;;;;;;;;;;;;;;;8.89;60.96;100397.47;5008262;28;6918;-80
2023/12/06 09:50:18;;;;;;;;;;;;;;;8.83;60.61;100402.22;4997806;28;6795;-81
2023/12/06 09:52:43;;;;;;;;;;;;;;;8.80;61.25;100396.97;5004434;28;6783;-80
2023/12/06 09:55:10;;;;;;;;;;;;;;;8.77;60.93;100395.09;5004940;28;7258;-78
2023/12/06 09:57:36;;;;;;;;;;;;;;;8.80;61.22;100409.75;5006629;28;6784;-76
2023/12/06 10:00:02;;;;;;;;;;;;;;;8.86;61.55;100408.41;5006680;28;6775;-81
2023/12/06 10:02:27;;;;;;;;;;;;;;;8.98;61.39;100413.31;4986048;28;7699;-79
2023/12/06 10:04:53;;;;;;;;;;;;;;;9.10;62.33;100418.19;4991291;28;7879;-78
2023/12/06 10:07:20;;;;;;;;;;;;;;;9.26;61.90;100425.00;5001973;28;8197;-73
2023/12/06 10:09:50;;;;;;;;;;;;;;;9.43;61.64;100430.16;4998418;28;6808;-73
2023/12/06 10:12:16;;;;;;;;;;;;;;;9.61;61.86;100429.34;4996302;28;6827;-73
2023/12/06 10:14:41;;;;;;;;;;;;;;;9.79;61.36;100424.31;5003490;28;6804;-73
2023/12/06 10:17:09;;;;;;;;;;;;;;;9.98;61.75;100434.69;4997582;28;6965;-73
2023/12/06 10:19:34;;;;;;;;;;;;;;;10.14;61.55;100433.81;4998856;28;6796;-73
2023/12/06 10:22:00;;;;;;;;;;;;;;;10.34;61.33;100425.34;5012157;28;7246;-73
2023/12/06 10:24:27;;;;;;;;;;;;;;;10.64;61.70;100430.22;4998097;28;6799;-73
2023/12/06 10:27:11;;;;;;;;;;;;;;;11.13;61.49;100423.97;4996315;28;7441;-73
2023/12/06 10:29:37;;;;;;;;;;;;;;;11.49;60.65;100426.47;5000412;28;7069;-74
2023/12/06 10:32:03;;;;;;;;;;;;;;;11.66;59.65;100434.91;5003011;28;7223;-73
2023/12/06 10:34:31;;;;;;;;;;;;;;;11.67;59.02;100417.78;4999514;28;6950;-74
2023/12/06 10:36:58;;;;;;;;;;;;;;;11.63;59.30;100426.19;4995046;28;6821;-74
2023/12/06 10:39:26;;;;;;;;;;;;;;;11.59;59.17;100419.13;5003846;28;7273;-73
2023/12/06 10:41:54;;;;;;;;;;;;;;;11.56;58.82;100422.47;5019610;28;6804;-74
2023/12/06 10:44:20;;;;;;;;;;;;;;;11.49;58.54;100415.31;4994800;28;7355;-74
2023/12/06 10:46:46;;;;;;;;;;;;;;;11.41;58.42;100421.78;4987676;28;7288;-74
2023/12/06 10:49:14;;;;;;;;;;;;;;;11.31;58.40;100423.06;4983998;28;7074;-74
2023/12/06 10:51:40;;;;;;;;;;;;;;;11.13;57.76;100423.09;4999270;28;7086;-74
2023/12/06 10:54:07;;;;;;;;;;;;;;;10.95;57.88;100424.88;5004394;28;6942;-74
2023/12/06 10:56:34;;;;;;;;;;;;;;;10.77;57.76;100431.69;5019038;28;7166;-74
2023/12/06 10:59:03;;;;;;;;;;;;;;;10.60;57.75;100426.63;4999645;28;7210;-73
2023/12/06 11:01:32;;;;;;;;;;;;;;;10.56;58.40;100425.59;5018077;28;7253;-73
2023/12/06 11:03:58;;;;;;;;;;;;;;;10.82;58.16;100427.69;4993797;28;7387;-73
2023/12/06 11:06:47;;;;;;;;;;;;;;;11.34;57.73;100418.94;4992057;28;8108;-73
2023/12/06 11:10:00;;;;;;;;;;;;;;;11.91;56.80;100407.69;5012172;28;7006;-73
2023/12/06 11:13:08;;;;;;;;;;;;;;;12.58;55.81;100415.63;4964142;28;7056;-73
2023/12/06 11:15:46;;;;;;;;;;;;;;;13.25;53.43;100413.00;4993314;28;7003;-73
2023/12/06 11:18:17;;;;;;;;;;;;;;;13.85;53.05;100403.13;4998964;28;7149;-71
2023/12/06 11:20:43;;;;;;;;;;;;;;;14.38;52.10;100410.91;4993813;28;6808;-72
2023/12/06 11:23:12;;;;;;;;;;;;;;;14.79;51.45;100410.53;5003897;28;6791;-74
2023/12/06 11:25:45;;;;;;;;;;;;;;;15.18;50.22;100406.50;5012904;28;7291;-73
2023/12/06 11:28:12;;;;;;;;;;;;;;;15.51;50.46;100405.72;5018457;28;6998;-73
2023/12/06 11:30:48;;;;;;;;;;;;;;;15.87;49.55;100406.66;4998573;28;7195;-73
2023/12/06 11:33:13;;;;;;;;;;;;;;;16.06;49.07;100402.88;4985915;28;7025;-72
2023/12/06 11:35:50;;;;;;;;;;;;;;;16.34;48.52;100413.06;4986175;28;6978;-71
2023/12/06 11:38:15;;;;;;;;;;;;;;;16.49;47.82;100408.22;5004534;28;7214;-72
2023/12/06 11:40:51;;;;;;;;;;;;;;;16.62;47.83;100409.41;4998728;28;7178;-74
2023/12/06 11:43:28;;;;;;;;;;;;;;;16.80;47.37;100414.16;5004100;28;7247;-73
2023/12/06 11:46:04;;;;;;;;;;;;;;;16.74;47.58;100414.00;4994195;28;6908;-72
2023/12/06 11:48:30;;;;;;;;;;;;;;;16.67;47.54;100414.69;5005108;28;6972;-72
2023/12/06 11:50:59;;;;;;;;;;;;;;;16.49;47.62;100422.91;4989044;28;6987;-73
2023/12/06 11:53:26;;;;;;;;;;;;;;;15.95;48.13;100420.72;5004075;28;7475;-74
2023/12/06 11:55:54;;;;;;;;;;;;;;;15.33;49.14;100428.44;4998781;28;6986;-72
2023/12/06 11:58:20;;;;;;;;;;;;;;;14.76;49.58;100430.19;5018995;28;7103;-72
2023/12/06 12:00:48;;;;;;;;;;;;;;;14.27;50.98;100425.16;5003174;28;6812;-72
2023/12/06 12:03:15;;;;;;;;;;;;;;;13.84;51.67;100419.44;5019100;28;6992;-72
2023/12/06 12:05:44;;;;;;;;;;;;;;;13.50;51.11;100423.34;5014421;28;7057;-72
2023/12/06 12:08:11;;;;;;;;;;;;;;;13.15;52.16;100422.09;4994986;28;7192;-74
2023/12/06 12:10:36;;;;;;;;;;;;;;;12.85;52.39;100417.53;5002334;28;7003;-74
2023/12/06 12:13:02;;;;;;;;;;;;;;;12.56;52.18;100424.06;5024714;28;6954;-74
2023/12/06 12:15:28;;;;;;;;;;;;;;;12.24;51.72;100409.09;5022577;28;6811;-71
2023/12/06 12:17:54;;;;;;;;;;;;;;;11.93;52.00;100416.38;5005300;28;6807;-73
2023/12/06 12:20:20;;;;;;;;;;;;;;;11.65;52.32;100432.25;5004820;28;6996;-72
2023/12/06 12:22:51;;;;;;;;;;;;;;;11.41;53.32;100430.38;5007080;28;7098;-73
2023/12/06 12:25:18;;;;;;;;;;;;;;;11.25;53.61;100432.22;5003647;28;7026;-71
2023/12/06 12:27:45;;;;;;;;;;;;;;;11.15;53.86;100430.06;5001847;28;7197;-73
2023/12/06 12:30:12;;;;;;;;;;;;;;;11.10;53.96;100434.06;4972673;28;7828;-74
2023/12/06 12:32:46;;;;;;;;;;;;;;;11.03;54.14;100432.06;5007537;28;6804;-73
2023/12/06 12:35:12;;;;;;;;;;;;;;;10.96;53.80;100431.75;4995650;28;7758;-74
2023/12/06 12:37:38;;;;;;;;;;;;;;;10.84;54.13;100437.19;4986096;28;7518;-73
2023/12/06 12:40:06;;;;;;;;;;;;;;;10.74;53.91;100431.56;5006695;28;7817;-73
2023/12/06 12:42:34;;;;;;;;;;;;;;;10.64;53.88;100427.66;5018921;28;6807;-73
2023/12/06 12:45:00;;;;;;;;;;;;;;;10.52;53.68;100422.81;4988632;28;7799;-73
2023/12/06 12:47:25;;;;;;;;;;;;;;;10.41;53.94;100430.84;5006339;28;7312;-73
2023/12/06 12:49:51;;;;;;;;;;;;;;;10.34;54.42;100428.78;4996072;28;7189;-73
2023/12/06 12:52:16;;;;;;;;;;;;;;;10.27;54.17;100444.66;4997364;28;8150;-73